Time;durP1;ratioP1;P1;durP2;ratioP2;P2;SDS_P1;SDS_P2;PMS_P1;PMS_P2;Temp;Humidity;BMP_temperature;BMP_pressure;BME280_temperature;BME280_humidity;BME280_pressure;Samples;Min_cycle;Max_cycle;Signal;HPM_P1;HPM_P2
2023/06/18 00:06:34;;;;;;;;;;;17.60;99.90;;;;;;20745591;28;19967;-74
2023/06/18 00:16:35;;;;;;;;;;;17.60;99.90;;;;;;20739852;28;19922;-72
2023/06/18 00:26:36;;;;;;;;;;;17.30;99.90;;;;;;20702155;28;19921;-73
2023/06/18 00:36:39;;;;;;;;;;;17.10;99.90;;;;;;20702100;28;19918;-73
2023/06/18 00:46:41;;;;;;;;;;;16.90;99.90;;;;;;20716740;28;19921;-73
2023/06/18 00:56:51;;;;;;;;;;;15.80;99.90;;;;;;20723538;28;19924;-73
2023/06/18 01:06:53;;;;;;;;;;;15.70;99.90;;;;;;20703395;28;19924;-73
2023/06/18 01:16:55;;;;;;;;;;;15.50;99.90;;;;;;20701843;28;19921;-74
2023/06/18 01:26:57;;;;;;;;;;;15.30;99.90;;;;;;20734965;28;19977;-74
2023/06/18 01:37:03;;;;;;;;;;;15.90;99.90;;;;;;20711838;28;20372;-74
2023/06/18 01:47:05;;;;;;;;;;;16.10;99.90;;;;;;20676225;28;19969;-75
2023/06/18 01:57:06;;;;;;;;;;;15.80;99.90;;;;;;20691612;28;19922;-74
2023/06/18 02:07:06;;;;;;;;;;;16.00;99.90;;;;;;20770255;28;19917;-75
2023/06/18 02:17:07;;;;;;;;;;;16.10;99.90;;;;;;20770175;28;19989;-74
2023/06/18 02:27:08;;;;;;;;;;;16.20;99.90;;;;;;20753281;28;20384;-75
2023/06/18 02:37:09;;;;;;;;;;;16.10;99.90;;;;;;20752480;28;20290;-73
2023/06/18 02:47:11;;;;;;;;;;;15.90;99.90;;;;;;20751955;28;20395;-74
2023/06/18 02:57:11;;;;;;;;;;;15.90;99.90;;;;;;20718173;28;19928;-75
2023/06/18 03:07:12;;;;;;;;;;;15.60;99.90;;;;;;20740441;23;19932;-76
2023/06/18 03:17:13;;;;;;;;;;;15.50;99.90;;;;;;20898958;28;19939;-75
2023/06/18 03:27:16;;;;;;;;;;;15.30;99.90;;;;;;20900203;28;20291;-76
2023/06/18 03:37:18;;;;;;;;;;;15.10;99.90;;;;;;20740479;28;19925;-75
2023/06/18 03:47:19;;;;;;;;;;;14.70;99.90;;;;;;20741082;28;20419;-75
2023/06/18 03:57:23;;;;;;;;;;;14.30;99.90;;;;;;20738614;28;20261;-75
2023/06/18 04:07:24;;;;;;;;;;;15.00;99.90;;;;;;20676030;28;1795462;-75
2023/06/18 04:17:25;;;;;;;;;;;15.10;99.90;;;;;;20742705;28;19921;-75
2023/06/18 04:27:27;;;;;;;;;;;15.20;99.90;;;;;;20752588;28;19920;-75
2023/06/18 04:37:29;;;;;;;;;;;15.30;99.90;;;;;;20840182;28;20288;-75
2023/06/18 04:47:32;;;;;;;;;;;15.30;99.90;;;;;;20838368;28;19913;-75
2023/06/18 04:57:33;;;;;;;;;;;15.50;99.90;;;;;;20837692;28;19917;-75
2023/06/18 05:07:35;;;;;;;;;;;15.60;99.90;;;;;;20837122;28;19921;-75
2023/06/18 05:17:37;;;;;;;;;;;15.90;99.90;;;;;;20820001;28;19940;-75
2023/06/18 05:27:42;;;;;;;;;;;16.30;99.90;;;;;;20841927;28;20005;-76
2023/06/18 05:37:43;;;;;;;;;;;16.50;99.90;;;;;;20753471;28;19952;-77
2023/06/18 05:47:44;;;;;;;;;;;16.60;99.90;;;;;;20755375;28;20017;-76
2023/06/18 05:57:48;;;;;;;;;;;16.90;99.90;;;;;;20764315;28;19924;-76
2023/06/18 06:07:50;;;;;;;;;;;17.50;99.90;;;;;;20795547;28;19917;-76
2023/06/18 06:17:50;;;;;;;;;;;18.00;99.90;;;;;;20769852;28;20329;-75
2023/06/18 06:27:52;;;;;;;;;;;18.40;99.90;;;;;;20778576;28;19913;-75
2023/06/18 06:37:53;;;;;;;;;;;18.40;99.90;;;;;;20845863;28;20368;-76
2023/06/18 06:47:54;;;;;;;;;;;18.90;99.90;;;;;;20847915;28;20319;-76
2023/06/18 06:58:08;;;;;;;;;;;20.10;99.90;;;;;;20845569;28;20378;-75
2023/06/18 07:08:10;;;;;;;;;;;20.60;99.90;;;;;;20843529;28;19917;-75
2023/06/18 07:18:11;;;;;;;;;;;21.10;99.90;;;;;;20828192;28;20327;-75
2023/06/18 07:28:12;;;;;;;;;;;21.10;99.00;;;;;;20827459;28;19921;-75
2023/06/18 07:38:12;;;;;;;;;;;21.60;99.30;;;;;;20826735;28;20407;-75
2023/06/18 07:48:13;;;;;;;;;;;22.40;97.70;;;;;;20807818;28;19957;-76
2023/06/18 07:58:13;;;;;;;;;;;23.70;97.00;;;;;;20767073;28;19924;-75
2023/06/18 08:08:15;;;;;;;;;;;24.50;94.30;;;;;;20776285;28;20008;-76
2023/06/18 08:18:15;;;;;;;;;;;24.90;93.30;;;;;;20757150;28;19917;-75
2023/06/18 08:28:16;;;;;;;;;;;25.60;91.70;;;;;;20753836;28;20387;-76
2023/06/18 08:38:17;;;;;;;;;;;25.50;91.60;;;;;;20814298;28;20002;-75
2023/06/18 08:48:20;;;;;;;;;;;26.60;90.00;;;;;;20780111;28;19932;-75
2023/06/18 08:58:24;;;;;;;;;;;26.90;89.60;;;;;;20783264;28;19940;-75
2023/06/18 09:08:24;;;;;;;;;;;26.80;89.90;;;;;;20816583;23;19926;-75
2023/06/18 09:18:25;;;;;;;;;;;27.30;87.50;;;;;;20815506;28;19925;-75
2023/06/18 09:28:26;;;;;;;;;;;29.00;84.90;;;;;;20833196;28;19913;-75
2023/06/18 09:38:37;;;;;;;;;;;29.60;83.80;;;;;;20832745;28;19978;-75
2023/06/18 09:48:39;;;;;;;;;;;29.70;82.90;;;;;;20829235;28;19925;-75
2023/06/18 09:58:41;;;;;;;;;;;29.70;83.60;;;;;;20831180;28;20378;-75
2023/06/18 10:08:45;;;;;;;;;;;30.70;84.90;;;;;;20830249;28;20439;-75
2023/06/18 10:19:05;;;;;;;;;;;30.40;82.10;;;;;;20829732;28;20306;-75
2023/06/18 10:29:06;;;;;;;;;;;29.60;83.50;;;;;;20837684;28;19944;-75
2023/06/18 10:39:07;;;;;;;;;;;29.50;83.30;;;;;;20825891;28;19917;-75
2023/06/18 10:49:12;;;;;;;;;;;31.30;83.30;;;;;;20828388;28;20311;-75
2023/06/18 10:59:13;;;;;;;;;;;30.30;82.70;;;;;;20825728;28;20405;-74
2023/06/18 11:09:14;;;;;;;;;;;31.00;83.00;;;;;;20827642;28;20010;-75
2023/06/18 11:19:15;;;;;;;;;;;31.20;83.60;;;;;;20906940;28;20476;-75
2023/06/18 11:29:15;;;;;;;;;;;32.70;78.70;;;;;;20889007;28;19975;-75
2023/06/18 11:39:16;;;;;;;;;;;32.00;77.50;;;;;;20825108;28;20293;-75
2023/06/18 11:49:17;;;;;;;;;;;31.90;78.70;;;;;;20823666;28;19956;-75
2023/06/18 11:59:18;;;;;;;;;;;30.60;77.20;;;;;;20822621;28;20417;-75
2023/06/18 12:09:19;;;;;;;;;;;32.30;75.40;;;;;;20822431;28;19927;-75
2023/06/18 12:19:21;;;;;;;;;;;32.30;76.90;;;;;;20831320;28;20280;-75
2023/06/18 12:29:24;;;;;;;;;;;33.90;73.10;;;;;;20817502;28;19943;-75
2023/06/18 12:39:24;;;;;;;;;;;33.80;69.90;;;;;;20820534;28;19949;-75
2023/06/18 12:49:26;;;;;;;;;;;32.90;71.90;;;;;;20820742;28;19917;-75
2023/06/18 12:59:26;;;;;;;;;;;32.60;67.40;;;;;;20821548;28;19924;-75
2023/06/18 13:09:27;;;;;;;;;;;32.70;70.50;;;;;;20829081;28;19917;-75
2023/06/18 13:19:30;;;;;;;;;;;34.00;70.10;;;;;;20817662;28;19929;-75
2023/06/18 13:29:31;;;;;;;;;;;33.80;69.20;;;;;;20810862;28;19956;-75
2023/06/18 13:39:31;;;;;;;;;;;32.90;67.00;;;;;;20807272;28;19960;-74
2023/06/18 13:49:32;;;;;;;;;;;32.40;71.90;;;;;;20827459;28;19991;-74
2023/06/18 13:59:33;;;;;;;;;;;33.40;67.70;;;;;;20826472;28;20391;-74
2023/06/18 14:09:34;;;;;;;;;;;32.70;68.20;;;;;;20840070;28;19917;-74
2023/06/18 14:19:35;;;;;;;;;;;33.20;69.40;;;;;;20825228;28;19940;-74
2023/06/18 14:29:36;;;;;;;;;;;34.10;68.70;;;;;;20825003;28;19917;-74
2023/06/18 14:39:37;;;;;;;;;;;33.20;68.10;;;;;;20820313;28;19917;-74
2023/06/18 14:49:37;;;;;;;;;;;34.20;67.00;;;;;;20843673;28;19920;-74
2023/06/18 14:59:40;;;;;;;;;;;32.90;65.60;;;;;;20817208;28;20221;-74
2023/06/18 15:09:41;;;;;;;;;;;32.70;66.30;;;;;;20893346;23;19925;-74
2023/06/18 15:19:42;;;;;;;;;;;33.20;67.20;;;;;;20992633;28;20262;-74
2023/06/18 15:29:43;;;;;;;;;;;32.20;67.60;;;;;;20992355;28;19921;-75
2023/06/18 15:39:46;;;;;;;;;;;32.70;66.00;;;;;;20991679;28;19916;-74
2023/06/18 15:49:46;;;;;;;;;;;32.20;66.50;;;;;;20988465;28;19995;-74
2023/06/18 15:59:48;;;;;;;;;;;31.60;70.50;;;;;;20988384;28;19917;-75
2023/06/18 16:09:48;;;;;;;;;;;31.30;74.30;;;;;;20998568;28;19923;-76
2023/06/18 16:19:49;;;;;;;;;;;30.70;82.00;;;;;;21010171;28;20367;-75
2023/06/18 16:29:50;;;;;;;;;;;30.70;85.20;;;;;;20936191;28;19919;-75
2023/06/18 16:39:51;;;;;;;;;;;28.70;87.80;;;;;;20983636;28;19948;-75
2023/06/18 16:49:52;;;;;;;;;;;27.70;91.10;;;;;;20924642;28;19913;-73
2023/06/18 16:59:53;;;;;;;;;;;26.30;95.80;;;;;;20945082;28;19924;-72
2023/06/18 17:09:54;;;;;;;;;;;25.60;97.50;;;;;;20985595;28;19916;-76
2023/06/18 17:19:55;;;;;;;;;;;25.90;96.50;;;;;;20949083;28;20426;-78
2023/06/18 17:29:56;;;;;;;;;;;26.30;97.10;;;;;;20940037;28;19959;-78
2023/06/18 17:39:56;;;;;;;;;;;26.20;98.20;;;;;;20969495;28;19916;-78
2023/06/18 17:49:57;;;;;;;;;;;26.10;99.00;;;;;;20946636;28;19952;-77
2023/06/18 17:59:58;;;;;;;;;;;25.90;99.10;;;;;;20924812;28;19923;-78
2023/06/18 18:09:58;;;;;;;;;;;25.70;99.90;;;;;;20923697;28;20398;-77
2023/06/18 18:19:59;;;;;;;;;;;25.70;99.90;;;;;;20950182;28;20374;-77
2023/06/18 18:30:00;;;;;;;;;;;25.30;99.90;;;;;;20999298;28;19919;-77
2023/06/18 18:40:01;;;;;;;;;;;25.30;99.90;;;;;;20999030;28;20093;-77
2023/06/18 18:50:02;;;;;;;;;;;25.10;99.90;;;;;;20984418;28;20320;-77
2023/06/18 19:00:03;;;;;;;;;;;24.80;99.90;;;;;;20986424;28;19916;-77
2023/06/18 19:10:05;;;;;;;;;;;24.70;99.90;;;;;;20990497;28;20275;-76
2023/06/18 19:20:06;;;;;;;;;;;24.10;99.90;;;;;;20996959;28;19920;-77
2023/06/18 19:30:07;;;;;;;;;;;23.60;99.90;;;;;;20998500;28;19916;-76
2023/06/18 19:40:08;;;;;;;;;;;22.90;99.90;;;;;;20992174;28;19916;-77
2023/06/18 19:50:09;;;;;;;;;;;22.40;99.90;;;;;;20997267;28;19912;-78
2023/06/18 20:00:10;;;;;;;;;;;22.20;99.90;;;;;;21003962;28;20011;-78
2023/06/18 20:10:16;;;;;;;;;;;22.00;99.90;;;;;;20999319;28;20390;-78
2023/06/18 20:20:17;;;;;;;;;;;22.10;99.90;;;;;;20994308;28;19923;-78
2023/06/18 20:30:18;;;;;;;;;;;21.50;99.90;;;;;;20979594;28;19912;-78
2023/06/18 20:40:19;;;;;;;;;;;21.40;99.90;;;;;;21009384;28;20405;-78
2023/06/18 20:50:19;;;;;;;;;;;21.50;99.90;;;;;;20997722;28;20421;-78
2023/06/18 21:00:20;;;;;;;;;;;21.40;99.90;;;;;;20987508;28;20457;-74
2023/06/18 21:10:22;;;;;;;;;;;21.00;99.90;;;;;;20929232;23;19979;-74
2023/06/18 21:20:23;;;;;;;;;;;20.80;99.90;;;;;;20886071;28;20398;-74
2023/06/18 21:30:24;;;;;;;;;;;20.30;99.90;;;;;;20920927;28;19913;-74
2023/06/18 21:40:24;;;;;;;;;;;20.30;99.90;;;;;;20854490;28;19917;-74
2023/06/18 21:50:25;;;;;;;;;;;20.20;99.90;;;;;;20777023;28;19913;-75
2023/06/18 22:00:26;;;;;;;;;;;20.30;99.90;;;;;;20777989;28;20264;-74
2023/06/18 22:10:26;;;;;;;;;;;20.50;99.90;;;;;;20787937;28;19963;-74
2023/06/18 22:20:27;;;;;;;;;;;20.50;99.90;;;;;;20794331;28;19917;-74
2023/06/18 22:30:28;;;;;;;;;;;20.20;99.90;;;;;;20789233;28;20340;-74
2023/06/18 22:40:29;;;;;;;;;;;19.70;99.90;;;;;;20794059;28;19976;-75
2023/06/18 22:50:29;;;;;;;;;;;19.70;99.90;;;;;;20813274;28;19913;-75
2023/06/18 23:00:30;;;;;;;;;;;19.50;99.90;;;;;;20793008;28;20386;-74
2023/06/18 23:10:30;;;;;;;;;;;19.30;99.90;;;;;;20817069;28;19967;-74
2023/06/18 23:20:34;;;;;;;;;;;19.20;99.90;;;;;;20878825;28;19921;-74
2023/06/18 23:30:36;;;;;;;;;;;19.00;99.90;;;;;;20815920;28;19932;-75
2023/06/18 23:40:37;;;;;;;;;;;18.90;99.90;;;;;;20830841;28;19996;-74
2023/06/18 23:50:37;;;;;;;;;;;18.70;99.90;;;;;;20904699;28;20375;-74
